Time;durP1;ratioP1;P1;durP2;ratioP2;P2;SDS_P1;SDS_P2;PMS_P1;PMS_P2;Temp;Humidity;BMP_temperature;BMP_pressure;BME280_temperature;BME280_humidity;BME280_pressure;Samples;Min_cycle;Max_cycle;Signal;HPM_P1;HPM_P2
2022/08/18 00:00:13;;;;;;;27.63;15.15;;;19.30;99.90;;;;;;5042138;28;20053;-66
2022/08/18 00:02:41;;;;;;;22.40;13.80;;;19.30;99.90;;;;;;5043596;28;20073;-66
2022/08/18 00:05:08;;;;;;;25.55;15.00;;;19.20;99.90;;;;;;5046843;28;20086;-66
2022/08/18 00:07:34;;;;;;;27.80;15.68;;;19.20;99.90;;;;;;5044615;28;20057;-66
2022/08/18 00:10:00;;;;;;;25.38;13.65;;;19.20;99.90;;;;;;5038372;28;20421;-66
2022/08/18 00:12:31;;;;;;;27.02;14.60;;;19.20;99.90;;;;;;5042906;28;20069;-65
2022/08/18 00:15:02;;;;;;;24.15;13.90;;;19.20;99.90;;;;;;5034287;28;20433;-65
2022/08/18 00:17:28;;;;;;;23.70;13.02;;;19.20;99.90;;;;;;5037309;28;20491;-65
2022/08/18 00:19:54;;;;;;;26.52;13.63;;;19.20;99.90;;;;;;5042842;28;20120;-65
2022/08/18 00:22:20;;;;;;;26.85;13.15;;;19.30;99.90;;;;;;5037036;28;20137;-65
2022/08/18 00:24:49;;;;;;;24.00;14.68;;;19.30;99.90;;;;;;5041630;28;20040;-66
2022/08/18 00:27:21;;;;;;;25.73;14.57;;;19.30;99.90;;;;;;5041932;28;20389;-65
2022/08/18 00:29:46;;;;;;;25.35;13.02;;;19.30;99.90;;;;;;5042355;28;20118;-66
2022/08/18 00:32:20;;;;;;;23.10;12.73;;;19.20;99.90;;;;;;5040609;28;20421;-65
2022/08/18 00:34:45;;;;;;;20.20;12.98;;;19.30;99.90;;;;;;5043018;28;20107;-65
2022/08/18 00:37:11;;;;;;;23.35;13.10;;;19.30;99.90;;;;;;5034388;28;20048;-65
2022/08/18 00:39:37;;;;;;;23.65;13.18;;;19.30;99.90;;;;;;5040071;28;20128;-65
2022/08/18 00:42:18;;;;;;;20.92;12.57;;;19.30;99.90;;;;;;5036532;28;20134;-65
2022/08/18 00:44:43;;;;;;;24.25;12.98;;;19.30;99.90;;;;;;5034234;28;20053;-66
2022/08/18 00:47:09;;;;;;;20.13;12.88;;;19.30;99.90;;;;;;5039557;28;20047;-65
2022/08/18 00:49:37;;;;;;;24.23;14.38;;;19.40;99.90;;;;;;5043649;28;20464;-65
2022/08/18 00:52:03;;;;;;;27.40;14.38;;;19.40;99.90;;;;;;5038075;28;20047;-65
2022/08/18 00:54:32;;;;;;;25.17;13.90;;;19.40;99.90;;;;;;5044151;28;20041;-65
2022/08/18 00:57:03;;;;;;;20.38;13.75;;;19.40;99.90;;;;;;5039509;28;20080;-66
2022/08/18 00:59:41;;;;;;;22.02;13.82;;;19.30;99.90;;;;;;5042265;28;20083;-66
2022/08/18 01:02:11;;;;;;;21.65;14.20;;;19.40;99.90;;;;;;5023365;28;20044;-66
2022/08/18 01:04:43;;;;;;;24.98;14.38;;;19.40;99.90;;;;;;5032427;28;21669;-66
2022/08/18 01:07:14;;;;;;;19.17;13.57;;;19.30;99.90;;;;;;5039925;28;20115;-66
2022/08/18 01:09:40;;;;;;;23.00;13.77;;;19.30;99.90;;;;;;5032931;28;20120;-66
2022/08/18 01:12:07;;;;;;;22.33;13.73;;;19.30;99.90;;;;;;5024530;28;20509;-66
2022/08/18 01:14:33;;;;;;;22.17;13.82;;;19.30;99.90;;;;;;5044305;28;20139;-66
2022/08/18 01:22:48;;;;;;;20.20;14.85;;;19.30;99.90;;;;;;5037304;28;20141;-66
2022/08/18 01:28:01;;;;;;;24.52;14.20;;;19.30;99.90;;;;;;5041898;28;20867;-66
2022/08/18 01:30:28;;;;;;;20.48;14.00;;;19.30;99.90;;;;;;5039848;28;20056;-66
2022/08/18 01:32:54;;;;;;;21.05;15.10;;;19.40;99.90;;;;;;5040912;28;20139;-66
2022/08/18 01:35:22;;;;;;;21.60;13.82;;;19.30;99.90;;;;;;5032900;28;20065;-66
2022/08/18 01:37:48;;;;;;;21.20;13.13;;;19.40;99.90;;;;;;5034426;28;20056;-66
2022/08/18 01:40:15;;;;;;;22.83;14.02;;;19.40;99.90;;;;;;5032938;28;20350;-66
2022/08/18 01:42:44;;;;;;;23.90;14.00;;;19.40;99.90;;;;;;5037233;28;20044;-66
2022/08/18 01:45:12;;;;;;;21.95;14.13;;;19.40;99.90;;;;;;5036579;28;20655;-66
2022/08/18 01:47:39;;;;;;;23.20;14.63;;;19.40;99.90;;;;;;5043370;28;20048;-66
2022/08/18 01:50:06;;;;;;;25.92;14.70;;;19.30;99.90;;;;;;5036516;28;20053;-65
2022/08/18 01:52:34;;;;;;;24.75;14.43;;;19.30;99.90;;;;;;5037811;28;20140;-65
2022/08/18 01:55:00;;;;;;;21.13;14.35;;;19.40;99.90;;;;;;5035733;28;20052;-65
2022/08/18 01:57:26;;;;;;;25.02;15.48;;;19.40;99.90;;;;;;5038005;28;20345;-65
2022/08/18 01:59:51;;;;;;;19.67;13.95;;;19.40;99.90;;;;;;5033497;28;20044;-65
2022/08/18 02:02:23;;;;;;;24.92;14.57;;;19.40;99.90;;;;;;5035740;28;20111;-65
2022/08/18 02:04:53;;;;;;;23.25;14.02;;;19.40;99.90;;;;;;5038295;28;20048;-65
2022/08/18 02:07:19;;;;;;;28.70;15.98;;;19.40;99.90;;;;;;5039313;28;20050;-65
2022/08/18 02:09:45;;;;;;;24.63;14.27;;;19.40;99.90;;;;;;5038252;28;20048;-65
2022/08/18 02:12:11;;;;;;;25.95;14.73;;;19.40;99.90;;;;;;5033160;28;20041;-66
2022/08/18 02:14:37;;;;;;;24.02;14.70;;;19.40;99.90;;;;;;5037192;28;20045;-65
2022/08/18 02:17:06;;;;;;;24.38;13.90;;;19.40;99.90;;;;;;5036495;28;20041;-65
2022/08/18 02:19:34;;;;;;;22.33;14.70;;;19.40;99.90;;;;;;5040658;28;20041;-65
2022/08/18 02:22:01;;;;;;;23.67;14.55;;;19.40;99.90;;;;;;5038445;28;20050;-65
2022/08/18 02:24:26;;;;;;;19.85;13.35;;;19.40;99.90;;;;;;5031518;28;20033;-65
2022/08/18 02:26:53;;;;;;;22.40;15.38;;;19.40;99.90;;;;;;5037232;28;20041;-65
2022/08/18 02:29:18;;;;;;;25.08;15.70;;;19.40;99.90;;;;;;5039891;28;20048;-65
2022/08/18 02:31:44;;;;;;;18.88;14.52;;;19.40;99.90;;;;;;5035704;28;20045;-66
2022/08/18 02:34:09;;;;;;;22.73;14.18;;;19.40;99.90;;;;;;5037723;28;20075;-65
2022/08/18 02:36:35;;;;;;;20.85;14.45;;;19.40;99.90;;;;;;5033257;28;20087;-66
2022/08/18 02:39:00;;;;;;;23.23;15.00;;;19.40;99.90;;;;;;5036673;28;20046;-66
2022/08/18 02:41:27;;;;;;;25.13;15.25;;;19.40;99.90;;;;;;5037382;28;20041;-65
2022/08/18 02:43:52;;;;;;;25.05;16.08;;;19.40;99.90;;;;;;5043208;28;20037;-65
2022/08/18 02:46:18;;;;;;;23.30;15.57;;;19.30;99.90;;;;;;5028693;28;20123;-65
2022/08/18 02:48:44;;;;;;;26.33;16.35;;;19.30;99.90;;;;;;5038887;28;20132;-66
2022/08/18 02:51:14;;;;;;;21.23;14.65;;;19.30;99.90;;;;;;5035193;28;20157;-66
2022/08/18 02:53:42;;;;;;;21.50;14.73;;;19.30;99.90;;;;;;5029723;28;20417;-66
2022/08/18 02:56:28;;;;;;;21.58;14.82;;;19.30;99.90;;;;;;5045240;28;20396;-66
2022/08/18 02:58:58;;;;;;;23.25;15.05;;;19.30;99.90;;;;;;5042456;28;20381;-66
2022/08/18 03:01:37;;;;;;;22.75;15.27;;;19.30;99.90;;;;;;5033821;28;20046;-66
2022/08/18 03:04:05;;;;;;;22.38;15.45;;;19.30;99.90;;;;;;5042306;28;20049;-66
2022/08/18 03:06:32;;;;;;;20.88;15.30;;;19.30;99.90;;;;;;5043259;28;20069;-66
2022/08/18 03:08:57;;;;;;;23.23;16.48;;;19.20;99.90;;;;;;5024198;28;20511;-65
2022/08/18 03:11:27;;;;;;;25.83;16.02;;;19.20;99.90;;;;;;5038226;28;20053;-66
2022/08/18 03:13:53;;;;;;;23.42;16.85;;;19.20;99.90;;;;;;5035618;28;20049;-66
2022/08/18 03:16:20;;;;;;;26.63;16.05;;;19.20;99.90;;;;;;5036948;28;20649;-66
2022/08/18 03:18:46;;;;;;;27.55;16.75;;;19.20;99.90;;;;;;5041797;28;20045;-66
2022/08/18 03:21:20;;;;;;;19.52;15.63;;;19.20;99.90;;;;;;5027413;28;20079;-66
2022/08/18 03:23:47;;;;;;;24.27;14.90;;;19.20;99.90;;;;;;5037120;28;20053;-66
2022/08/18 03:26:15;;;;;;;21.23;14.75;;;19.20;99.90;;;;;;5040698;28;20155;-66
2022/08/18 03:28:44;;;;;;;25.13;15.40;;;19.20;99.90;;;;;;5037710;28;20037;-66
2022/08/18 03:31:11;;;;;;;29.85;16.70;;;19.20;99.90;;;;;;5037920;28;20053;-66
2022/08/18 03:33:37;;;;;;;23.17;15.02;;;19.20;99.90;;;;;;5036706;28;20041;-66
2022/08/18 03:36:07;;;;;;;20.48;14.57;;;19.20;99.90;;;;;;5036523;28;20083;-65
2022/08/18 03:38:34;;;;;;;23.58;15.80;;;19.20;99.90;;;;;;5039662;28;20055;-65
2022/08/18 03:41:00;;;;;;;23.13;15.80;;;19.20;99.90;;;;;;5040684;28;20460;-65
2022/08/18 03:43:26;;;;;;;22.15;15.23;;;19.20;99.90;;;;;;5040994;28;20087;-65
2022/08/18 03:45:55;;;;;;;20.60;15.65;;;19.20;99.90;;;;;;5034126;28;20114;-65
2022/08/18 03:48:21;;;;;;;21.05;14.32;;;19.20;99.90;;;;;;5039335;28;20049;-65
2022/08/18 03:50:47;;;;;;;20.52;15.45;;;19.30;99.90;;;;;;5036131;28;20049;-65
2022/08/18 03:53:13;;;;;;;20.95;14.63;;;19.30;99.90;;;;;;5036757;28;20033;-65
2022/08/18 03:55:42;;;;;;;23.73;15.65;;;19.30;99.90;;;;;;5041002;28;20357;-66
2022/08/18 03:58:13;;;;;;;23.92;16.08;;;19.30;99.90;;;;;;5047406;28;20558;-65
2022/08/18 04:00:38;;;;;;;22.83;15.27;;;19.30;99.90;;;;;;5037386;28;20045;-65
2022/08/18 04:03:05;;;;;;;21.13;15.63;;;19.20;99.90;;;;;;5044298;28;20385;-65
2022/08/18 04:05:33;;;;;;;18.95;15.25;;;19.20;99.90;;;;;;5036620;28;20041;-65
2022/08/18 04:08:01;;;;;;;22.05;15.98;;;19.30;99.90;;;;;;5039338;28;20119;-65
2022/08/18 04:10:27;;;;;;;27.55;15.65;;;19.20;99.90;;;;;;5041137;28;20045;-65
2022/08/18 04:12:52;;;;;;;24.40;16.48;;;19.20;99.90;;;;;;5041350;28;20114;-65
2022/08/18 04:15:18;;;;;;;23.52;15.98;;;19.20;99.90;;;;;;5043861;28;20432;-64
2022/08/18 04:17:45;;;;;;;23.80;16.50;;;19.20;99.90;;;;;;5037884;28;20037;-65
2022/08/18 04:20:12;;;;;;;24.67;16.75;;;19.20;99.90;;;;;;5036829;28;20059;-65
2022/08/18 04:22:38;;;;;;;25.40;16.13;;;19.20;99.90;;;;;;5041427;28;20064;-65
2022/08/18 04:25:08;;;;;;;27.00;16.75;;;19.20;99.90;;;;;;5037668;28;20042;-64
2022/08/18 04:27:34;;;;;;;23.05;16.45;;;19.20;99.90;;;;;;5042285;28;20037;-65
2022/08/18 04:29:59;;;;;;;23.65;15.50;;;19.20;99.90;;;;;;5031795;28;20461;-65
2022/08/18 04:32:25;;;;;;;24.95;16.27;;;19.20;99.90;;;;;;5039138;28;20048;-65
2022/08/18 04:34:51;;;;;;;18.30;14.23;;;19.10;99.90;;;;;;5046816;28;20056;-65
2022/08/18 04:37:17;;;;;;;25.75;16.42;;;19.10;99.90;;;;;;5034806;28;20045;-65
2022/08/18 04:39:44;;;;;;;21.95;15.05;;;19.10;99.90;;;;;;5037513;28;20140;-65
2022/08/18 04:42:10;;;;;;;24.40;15.80;;;19.10;99.90;;;;;;5032552;28;20124;-65
2022/08/18 04:44:36;;;;;;;19.73;15.63;;;19.10;99.90;;;;;;5039036;28;20143;-66
2022/08/18 04:47:03;;;;;;;20.45;16.42;;;19.20;99.90;;;;;;5035702;28;20050;-64
2022/08/18 04:49:30;;;;;;;25.85;16.33;;;19.20;99.90;;;;;;5037437;28;20120;-64
2022/08/18 04:54:41;;;;;;;25.77;16.80;;;19.10;99.90;;;;;;5032996;28;20452;-65
2022/08/18 04:57:08;;;;;;;24.65;16.05;;;19.20;99.90;;;;;;5038558;28;20033;-64
2022/08/18 04:59:35;;;;;;;22.10;16.58;;;19.20;99.90;;;;;;5035657;28;20092;-65
2022/08/18 05:02:04;;;;;;;26.00;16.70;;;19.10;99.90;;;;;;5044466;28;20041;-65
2022/08/18 05:04:30;;;;;;;20.17;14.60;;;19.10;99.90;;;;;;5036173;28;20064;-65
2022/08/18 05:06:56;;;;;;;22.42;16.15;;;19.10;99.90;;;;;;5043245;28;20084;-64
2022/08/18 05:09:22;;;;;;;28.60;16.73;;;19.10;99.90;;;;;;5045163;28;20080;-65
2022/08/18 05:11:49;;;;;;;25.23;16.85;;;19.10;99.90;;;;;;5037307;28;20395;-66
2022/08/18 05:14:16;;;;;;;26.45;16.90;;;19.10;99.90;;;;;;5044908;28;20464;-66
2022/08/18 05:16:42;;;;;;;26.00;18.40;;;19.20;99.90;;;;;;5040389;28;20046;-66
2022/08/18 05:19:10;;;;;;;23.40;17.65;;;19.10;99.90;;;;;;5041544;28;20045;-66
2022/08/18 05:21:38;;;;;;;22.20;17.40;;;19.10;99.90;;;;;;5044520;28;20075;-66
2022/08/18 05:24:04;;;;;;;20.20;15.60;;;19.10;99.90;;;;;;5046723;28;20041;-65
2022/08/18 05:26:30;;;;;;;23.70;16.42;;;19.10;99.90;;;;;;5036579;28;20053;-65
2022/08/18 05:28:56;;;;;;;23.10;16.25;;;19.10;99.90;;;;;;5040220;28;20068;-66
2022/08/18 05:31:24;;;;;;;23.60;16.30;;;19.20;99.90;;;;;;5038051;28;20129;-66
2022/08/18 05:33:52;;;;;;;21.75;16.52;;;19.20;99.90;;;;;;5038123;28;20052;-66
2022/08/18 05:36:34;;;;;;;21.25;16.10;;;19.20;99.90;;;;;;5040023;28;20530;-66
2022/08/18 05:39:18;;;;;;;21.65;15.75;;;19.20;99.90;;;;;;5042992;28;20057;-66
2022/08/18 05:41:48;;;;;;;24.13;15.27;;;19.20;99.90;;;;;;5032515;28;20143;-66
2022/08/18 05:44:18;;;;;;;21.02;15.45;;;19.20;99.90;;;;;;5046054;28;20061;-65
2022/08/18 05:46:51;;;;;;;20.23;15.82;;;19.30;99.90;;;;;;5042196;28;20053;-66
2022/08/18 05:49:18;;;;;;;23.55;15.93;;;19.30;99.90;;;;;;5034825;28;20105;-66
2022/08/18 05:51:53;;;;;;;19.27;14.50;;;19.30;99.90;;;;;;5033591;28;20057;-66
2022/08/18 05:57:17;;;;;;;22.30;15.90;;;19.40;99.90;;;;;;5040629;28;20053;-65
2022/08/18 05:59:44;;;;;;;19.65;15.00;;;19.40;99.90;;;;;;5038873;28;20110;-65
2022/08/18 06:02:12;;;;;;;21.63;14.57;;;19.40;99.90;;;;;;5041932;28;20174;-65
2022/08/18 06:04:45;;;;;;;21.30;14.80;;;19.50;99.90;;;;;;5030783;28;20648;-64
2022/08/18 06:07:37;;;;;;;22.00;15.90;;;19.50;99.90;;;;;;5041767;28;20191;-65
2022/08/18 06:10:06;;;;;;;19.88;14.85;;;19.50;99.90;;;;;;5041783;28;20141;-65
2022/08/18 06:12:50;;;;;;;23.05;15.15;;;19.50;99.90;;;;;;5047708;28;20048;-65
2022/08/18 06:15:34;;;;;;;18.17;14.23;;;19.50;99.90;;;;;;5044108;28;20055;-69
2022/08/18 06:18:15;;;;;;;17.35;14.57;;;19.60;99.90;;;;;;5037679;28;20055;-71
2022/08/18 06:20:53;;;;;;;25.30;14.27;;;19.50;99.90;;;;;;5029457;28;20049;-69
2022/08/18 06:23:43;;;;;;;20.88;13.60;;;19.60;99.90;;;;;;5034494;28;20132;-70
2022/08/18 06:26:40;;;;;;;21.67;13.40;;;19.70;99.90;;;;;;5043526;28;20051;-69
2022/08/18 06:29:43;;;;;;;19.67;12.80;;;19.70;99.90;;;;;;5042901;28;20334;-70
2022/08/18 06:32:28;;;;;;;18.73;12.75;;;19.80;99.90;;;;;;5035083;28;20067;-69
2022/08/18 06:35:20;;;;;;;20.25;12.68;;;19.90;99.90;;;;;;5040940;28;20163;-70
2022/08/18 06:40:42;;;;;;;15.98;12.68;;;20.10;99.90;;;;;;5037824;28;20037;-69
2022/08/18 06:43:13;;;;;;;17.80;12.50;;;20.20;99.90;;;;;;5044846;28;20380;-68
2022/08/18 06:45:41;;;;;;;18.70;12.80;;;20.30;99.90;;;;;;5041537;28;20384;-69
2022/08/18 06:48:36;;;;;;;18.63;12.05;;;20.30;99.90;;;;;;5041349;28;20045;-68
2022/08/18 06:51:05;;;;;;;16.38;12.13;;;20.30;99.90;;;;;;5047563;28;20048;-68
2022/08/18 06:53:56;;;;;;;17.30;11.85;;;20.30;99.90;;;;;;5047429;28;20129;-68
2022/08/18 06:56:27;;;;;;;17.35;12.45;;;20.30;99.90;;;;;;5048825;28;20037;-69
2022/08/18 06:58:54;;;;;;;17.15;12.32;;;20.30;99.90;;;;;;5042797;28;20068;-69
2022/08/18 07:01:22;;;;;;;16.27;12.15;;;20.30;99.90;;;;;;5034947;28;20429;-69
2022/08/18 07:03:55;;;;;;;18.25;11.75;;;20.40;99.90;;;;;;5043107;28;20049;-69
2022/08/18 07:06:20;;;;;;;14.95;10.02;;;20.40;99.90;;;;;;5039782;28;20116;-69
2022/08/18 07:09:07;;;;;;;16.00;11.40;;;20.40;99.90;;;;;;5046312;28;20164;-69
2022/08/18 07:11:33;;;;;;;16.83;11.50;;;20.50;99.90;;;;;;5044716;28;20492;-68
2022/08/18 07:14:11;;;;;;;15.25;10.48;;;20.60;99.90;;;;;;5048719;28;20052;-68
2022/08/18 07:16:36;;;;;;;16.70;10.98;;;20.70;99.90;;;;;;5048335;28;20065;-70
2022/08/18 07:19:11;;;;;;;18.40;10.30;;;20.80;99.90;;;;;;5041275;28;20186;-69
2022/08/18 07:21:39;;;;;;;14.05;9.43;;;20.80;99.90;;;;;;5038003;28;20041;-68
2022/08/18 07:24:10;;;;;;;15.70;9.82;;;21.00;99.90;;;;;;5050078;28;20060;-69
2022/08/18 07:26:57;;;;;;;13.20;8.38;;;21.10;99.90;;;;;;5047890;28;20072;-70
2022/08/18 07:29:22;;;;;;;13.93;8.25;;;21.20;99.90;;;;;;5046855;28;20552;-69
2022/08/18 07:31:52;;;;;;;11.60;8.02;;;21.20;99.90;;;;;;5044036;28;20128;-72
2022/08/18 07:34:35;;;;;;;13.00;8.10;;;21.20;99.90;;;;;;5040423;28;20131;-69
2022/08/18 07:37:06;;;;;;;12.23;7.68;;;21.20;99.90;;;;;;5052865;28;20040;-70
2022/08/18 07:39:43;;;;;;;13.00;7.25;;;21.20;99.90;;;;;;5045061;28;20050;-70
2022/08/18 07:42:41;;;;;;;12.15;7.28;;;21.30;99.90;;;;;;5050193;28;20037;-70
2022/08/18 07:45:45;;;;;;;9.93;6.32;;;21.40;99.90;;;;;;5034585;28;20425;-69
2022/08/18 07:48:24;;;;;;;10.18;5.65;;;21.50;99.90;;;;;;4987157;28;20147;-69
2022/08/18 07:51:08;;;;;;;9.15;5.35;;;21.70;99.90;;;;;;4982123;28;20085;-69
2022/08/18 07:53:59;;;;;;;9.93;5.65;;;21.90;99.90;;;;;;5015425;28;20130;-68
2022/08/18 07:56:42;;;;;;;8.50;4.78;;;22.20;99.90;;;;;;5043891;28;20099;-68
2022/08/18 07:59:34;;;;;;;8.43;5.60;;;22.40;99.90;;;;;;5035091;28;20057;-68
2022/08/18 08:02:14;;;;;;;7.63;5.30;;;22.60;99.90;;;;;;5046173;28;20052;-68
2022/08/18 08:05:04;;;;;;;8.55;5.57;;;22.60;99.90;;;;;;5032983;28;20075;-68
2022/08/18 08:07:39;;;;;;;9.65;5.45;;;22.70;99.90;;;;;;5033414;28;20054;-68
2022/08/18 08:10:41;;;;;;;10.05;5.50;;;22.50;99.90;;;;;;5034250;28;20070;-68
2022/08/18 08:13:10;;;;;;;9.23;4.88;;;22.30;99.90;;;;;;5033447;28;20124;-68
2022/08/18 08:15:51;;;;;;;9.35;5.50;;;22.20;99.90;;;;;;5043507;28;20236;-68
2022/08/18 08:18:28;;;;;;;10.80;5.10;;;22.20;99.90;;;;;;5037822;28;20056;-68
2022/08/18 08:20:58;;;;;;;8.25;5.13;;;22.20;99.90;;;;;;5031507;28;20044;-67
2022/08/18 08:23:51;;;;;;;11.02;5.95;;;22.30;99.90;;;;;;5044050;28;20053;-67
2022/08/18 08:26:23;;;;;;;11.98;5.53;;;22.50;99.90;;;;;;5039198;28;20377;-67
2022/08/18 08:29:07;;;;;;;13.85;5.68;;;22.50;99.90;;;;;;5031501;28;20049;-67
2022/08/18 08:31:49;;;;;;;9.50;5.45;;;22.50;99.90;;;;;;5030263;28;20095;-67
2022/08/18 08:34:23;;;;;;;9.30;4.80;;;22.50;99.90;;;;;;5030775;28;20125;-67
2022/08/18 08:36:57;;;;;;;8.43;5.10;;;22.40;99.90;;;;;;5028212;28;20139;-66
2022/08/18 08:40:08;;;;;;;7.40;4.45;;;22.60;99.90;;;;;;5044679;28;20411;-66
2022/08/18 08:42:41;;;;;;;10.63;4.45;;;22.70;99.90;;;;;;5037931;28;20045;-66
2022/08/18 08:45:27;;;;;;;10.23;4.70;;;22.80;99.90;;;;;;5038848;28;20052;-66
2022/08/18 08:48:00;;;;;;;8.55;4.63;;;23.00;99.90;;;;;;5033860;28;20081;-66
2022/08/18 08:50:30;;;;;;;7.40;3.83;;;23.20;99.90;;;;;;5032541;28;20503;-66
2022/08/18 08:53:38;;;;;;;7.35;3.90;;;23.20;99.90;;;;;;5041297;28;20116;-66
2022/08/18 08:56:10;;;;;;;6.22;3.20;;;23.40;99.90;;;;;;5026739;28;20345;-66
2022/08/18 08:59:03;;;;;;;8.98;3.22;;;23.50;99.90;;;;;;5030101;28;20543;-65
2022/08/18 09:01:47;;;;;;;6.50;3.42;;;23.80;99.90;;;;;;5026720;28;20073;-66
2022/08/18 09:05:00;;;;;;;6.40;3.25;;;23.90;99.90;;;;;;5036065;28;20044;-66
2022/08/18 09:07:53;;;;;;;6.28;3.35;;;23.90;99.90;;;;;;5040674;28;20196;-68
2022/08/18 09:10:27;;;;;;;8.75;3.70;;;23.70;99.90;;;;;;5035332;28;20056;-68
2022/08/18 09:13:26;;;;;;;5.95;3.15;;;23.80;99.90;;;;;;5046205;28;20056;-68
2022/08/18 09:16:29;;;;;;;8.45;3.33;;;23.70;99.90;;;;;;5030786;28;20139;-69
2022/08/18 09:19:11;;;;;;;6.45;3.05;;;23.40;99.90;;;;;;5034759;28;20133;-68
2022/08/18 09:21:45;;;;;;;6.30;3.10;;;23.20;99.90;;;;;;5034319;28;20033;-70
2022/08/18 09:24:25;;;;;;;6.00;3.03;;;23.00;99.90;;;;;;5030220;28;20468;-70
2022/08/18 09:27:02;;;;;;;7.28;2.75;;;22.80;99.90;;;;;;5028717;28;20048;-70
2022/08/18 09:29:36;;;;;;;4.45;2.70;;;22.70;99.90;;;;;;5031816;28;20041;-70
2022/08/18 09:32:17;;;;;;;;;;;22.90;99.90;;;;;;5039409;28;20049;-72
2022/08/18 09:35:01;;;;;;;3.53;2.05;;;23.00;99.90;;;;;;5028628;28;20459;-69
2022/08/18 09:37:42;;;;;;;6.90;2.40;;;23.00;99.90;;;;;;5026769;28;20119;-71
2022/08/18 09:43:14;;;;;;;7.75;2.45;;;23.40;99.90;;;;;;5028267;28;20049;-68
2022/08/18 09:45:56;;;;;;;5.63;2.50;;;23.50;99.90;;;;;;5025867;28;20099;-68
2022/08/18 09:48:28;;;;;;;4.65;2.30;;;23.50;99.90;;;;;;5034087;28;20147;-69
2022/08/18 09:51:30;;;;;;;3.47;1.92;;;23.40;99.90;;;;;;5031164;28;20037;-68
2022/08/18 09:54:12;;;;;;;4.68;2.30;;;23.40;99.90;;;;;;5025456;28;20041;-69
2022/08/18 09:57:24;;;;;;;6.95;2.85;;;23.30;99.90;;;;;;5027532;28;20120;-69
2022/08/18 10:00:15;;;;;;;4.75;1.90;;;23.40;99.90;;;;;;5022882;28;20106;-68
2022/08/18 10:02:41;;;;;;;4.80;1.83;;;23.30;99.90;;;;;;5032196;28;20045;-68
2022/08/18 10:05:18;;;;;;;3.97;1.90;;;23.10;99.90;;;;;;5036387;28;20477;-68
2022/08/18 10:07:52;;;;;;;4.60;1.70;;;23.00;99.90;;;;;;5035820;28;20123;-69
2022/08/18 10:10:38;;;;;;;4.63;1.70;;;23.10;99.90;;;;;;5030039;28;20044;-69
2022/08/18 10:13:46;;;;;;;2.95;1.60;;;23.10;99.90;;;;;;5037662;28;20049;-71
2022/08/18 10:16:42;;;;;;;3.75;1.55;;;23.40;99.90;;;;;;5033746;28;20129;-69
2022/08/18 10:19:28;;;;;;;4.30;1.60;;;23.60;99.90;;;;;;5033912;28;20052;-72
2022/08/18 10:21:57;;;;;;;3.25;1.48;;;23.70;99.90;;;;;;5042009;28;20045;-65
2022/08/18 10:24:53;;;;;;;3.38;1.48;;;24.00;99.90;;;;;;5038088;28;20049;-69
2022/08/18 10:27:44;;;;;;;2.53;1.30;;;24.20;99.90;;;;;;5055246;28;20037;-70
2022/08/18 10:30:29;;;;;;;3.03;1.35;;;24.40;99.90;;;;;;5037522;28;20128;-70
2022/08/18 10:32:55;;;;;;;1.75;1.20;;;24.70;99.90;;;;;;5042309;28;20148;-71
2022/08/18 10:35:35;;;;;;;2.33;1.10;;;24.90;99.90;;;;;;5048377;28;20068;-70
2022/08/18 10:38:21;;;;;;;3.50;1.20;;;25.00;99.90;;;;;;5045260;28;20033;-68
2022/08/18 10:41:03;;;;;;;2.25;1.20;;;24.90;99.90;;;;;;5044281;28;20052;-73
2022/08/18 10:43:39;;;;;;;2.53;1.20;;;24.90;99.90;;;;;;5051591;28;20041;-70
2022/08/18 10:46:14;;;;;;;3.47;1.05;;;24.80;99.90;;;;;;5039534;28;20148;-69
2022/08/18 10:48:40;;;;;;;2.55;1.17;;;24.80;99.90;;;;;;5041201;28;20080;-70
2022/08/18 10:51:14;;;;;;;1.92;1.10;;;24.80;99.90;;;;;;5046915;28;20564;-68
2022/08/18 10:54:08;;;;;;;3.00;1.33;;;24.80;99.90;;;;;;5053682;28;20397;-69
2022/08/18 10:56:39;;;;;;;2.92;1.27;;;24.80;99.90;;;;;;5030083;28;20045;-64
2022/08/18 10:59:22;;;;;;;3.03;1.20;;;25.00;99.90;;;;;;5039465;28;20396;-63
2022/08/18 11:01:55;;;;;;;1.48;1.10;;;24.90;99.90;;;;;;5049399;28;20270;-68
2022/08/18 11:04:30;;;;;;;3.05;1.23;;;25.00;99.90;;;;;;5040517;28;20037;-64
2022/08/18 11:07:08;;;;;;;3.30;1.20;;;25.10;99.90;;;;;;5041772;28;20201;-63
2022/08/18 11:09:35;;;;;;;2.88;1.20;;;25.10;99.90;;;;;;5039756;28;20475;-64
2022/08/18 11:12:02;;;;;;;2.00;1.05;;;25.20;99.90;;;;;;5042829;28;20120;-66
2022/08/18 11:14:37;;;;;;;2.15;1.20;;;25.10;99.90;;;;;;5039033;28;20065;-65
2022/08/18 11:17:11;;;;;;;3.30;1.30;;;25.10;99.90;;;;;;5050869;28;20033;-65
2022/08/18 11:19:40;;;;;;;2.97;1.20;;;25.30;99.90;;;;;;5051765;28;20076;-66
2022/08/18 11:22:19;;;;;;;3.08;1.20;;;25.40;99.90;;;;;;5041572;28;20037;-64
2022/08/18 11:24:44;;;;;;;2.92;1.10;;;25.40;99.90;;;;;;5051036;28;20784;-66
2022/08/18 11:27:20;;;;;;;2.40;1.00;;;25.40;99.90;;;;;;5036473;28;20053;-64
2022/08/18 11:29:46;;;;;;;2.13;0.93;;;25.40;99.90;;;;;;5047279;28;20083;-65
2022/08/18 11:32:31;;;;;;;2.35;1.00;;;25.50;99.90;;;;;;5053147;28;20089;-65
2022/08/18 11:34:57;;;;;;;2.50;1.10;;;25.50;99.90;;;;;;5051775;28;20067;-65
2022/08/18 11:37:28;;;;;;;2.47;1.10;;;25.60;99.90;;;;;;5045849;28;20100;-64
2022/08/18 11:39:58;;;;;;;2.58;1.30;;;25.50;99.90;;;;;;5052845;28;20116;-64
2022/08/18 11:42:32;;;;;;;2.55;1.08;;;25.60;99.90;;;;;;5050896;28;20045;-64
2022/08/18 11:45:16;;;;;;;4.25;1.30;;;25.70;99.90;;;;;;5053859;28;20053;-64
2022/08/18 11:48:09;;;;;;;3.72;1.30;;;25.70;99.90;;;;;;5045564;28;20591;-64
2022/08/18 11:50:46;;;;;;;2.58;1.30;;;25.90;99.90;;;;;;5050504;28;20087;-64
2022/08/18 11:53:35;;;;;;;3.50;1.50;;;26.00;99.90;;;;;;5051021;28;20126;-64
2022/08/18 11:56:18;;;;;;;3.45;1.55;;;26.20;99.90;;;;;;5055179;28;20068;-64
2022/08/18 11:58:52;;;;;;;4.07;1.40;;;26.30;99.90;;;;;;5054612;28;20627;-64
2022/08/18 12:01:37;;;;;;;;;;;26.10;99.90;;;;;;5053781;28;20172;-65
2022/08/18 12:04:12;;;;;;;5.28;1.90;;;26.00;99.90;;;;;;5050573;28;19929;-66
2022/08/18 12:06:53;;;;;;;3.53;1.35;;;26.10;99.90;;;;;;5043873;28;20057;-64
2022/08/18 12:09:22;;;;;;;4.40;1.30;;;26.10;99.90;;;;;;5051361;28;20393;-64
2022/08/18 12:12:24;;;;;;;3.58;1.40;;;26.00;99.90;;;;;;5048184;28;20080;-64
2022/08/18 12:15:19;;;;;;;3.00;1.40;;;25.90;99.90;;;;;;5050672;28;20060;-65
2022/08/18 12:17:46;;;;;;;2.55;1.20;;;25.80;99.90;;;;;;5037252;28;20053;-65
2022/08/18 12:20:14;;;;;;;2.33;1.20;;;25.70;99.90;;;;;;5046419;28;20126;-65
2022/08/18 12:22:42;;;;;;;3.88;1.38;;;25.90;99.90;;;;;;5043695;28;20053;-64
2022/08/18 12:25:11;;;;;;;2.80;1.25;;;26.00;99.90;;;;;;5053647;28;20049;-64
2022/08/18 12:27:36;;;;;;;4.50;1.50;;;26.00;99.90;;;;;;5049611;28;20041;-65
2022/08/18 12:30:04;;;;;;;3.13;1.35;;;25.70;99.90;;;;;;5051890;28;20043;-64
2022/08/18 12:32:32;;;;;;;3.83;1.50;;;25.90;99.90;;;;;;5049315;28;20048;-65
2022/08/18 12:34:59;;;;;;;4.15;1.50;;;26.10;99.90;;;;;;5053891;28;20399;-65
2022/08/18 12:37:26;;;;;;;4.70;1.60;;;26.30;99.90;;;;;;5049167;28;20041;-65
2022/08/18 12:39:53;;;;;;;3.10;1.58;;;26.40;99.90;;;;;;5051481;28;20044;-65
2022/08/18 12:42:19;;;;;;;4.75;1.40;;;26.40;99.90;;;;;;5046794;28;20042;-65
2022/08/18 12:44:46;;;;;;;5.38;1.75;;;26.40;99.90;;;;;;5049273;28;20095;-65
2022/08/18 12:47:20;;;;;;;3.63;1.40;;;26.20;99.80;;;;;;5048358;28;20124;-65
2022/08/18 12:49:46;;;;;;;3.17;1.50;;;26.30;99.90;;;;;;5046259;28;20130;-64
2022/08/18 12:52:12;;;;;;;3.83;1.48;;;26.20;99.90;;;;;;5043814;28;20145;-65
2022/08/18 12:54:39;;;;;;;3.55;1.60;;;26.30;99.80;;;;;;5047713;28;20049;-64
2022/08/18 12:57:08;;;;;;;2.55;1.30;;;26.30;99.50;;;;;;5042736;28;20171;-64
2022/08/18 12:59:35;;;;;;;3.55;1.42;;;26.20;99.20;;;;;;5048378;28;20364;-64
2022/08/18 13:02:01;;;;;;;3.58;1.60;;;26.30;99.10;;;;;;5051261;28;20036;-64
2022/08/18 13:04:27;;;;;;;3.15;1.50;;;26.30;99.50;;;;;;5046426;28;20052;-65
2022/08/18 13:06:54;;;;;;;2.65;1.38;;;26.20;99.40;;;;;;5049300;28;20044;-65
2022/08/18 13:09:21;;;;;;;3.85;1.70;;;26.40;99.50;;;;;;5049754;28;20119;-64
2022/08/18 13:11:47;;;;;;;2.38;1.40;;;26.30;99.30;;;;;;5032247;28;20060;-64
2022/08/18 13:14:14;;;;;;;2.58;1.50;;;26.40;99.50;;;;;;5047530;28;20035;-64
2022/08/18 13:16:41;;;;;;;3.28;1.40;;;26.20;99.60;;;;;;5043908;28;20124;-64
2022/08/18 13:19:08;;;;;;;3.00;1.58;;;26.10;99.20;;;;;;5047946;28;20159;-65
2022/08/18 13:21:34;;;;;;;2.50;1.40;;;26.10;99.40;;;;;;5049290;28;20056;-64
2022/08/18 13:24:00;;;;;;;3.42;1.83;;;26.20;99.50;;;;;;5046406;28;20052;-64
2022/08/18 13:26:29;;;;;;;4.22;1.55;;;26.10;99.40;;;;;;5051967;28;20033;-64